createdAt,value
2023-04-25T00:01:37.151Z,64.31
2023-04-25T00:04:03.958Z,63.58
2023-04-25T00:06:30.704Z,63.64
2023-04-25T00:08:57.664Z,64.00
2023-04-25T00:11:24.802Z,64.47
2023-04-25T00:13:55.325Z,63.63
2023-04-25T00:16:21.880Z,63.64
2023-04-25T00:18:52.181Z,64.49
2023-04-25T00:21:20.680Z,63.91
2023-04-25T00:23:47.803Z,65.21
2023-04-25T00:26:14.355Z,64.33
2023-04-25T00:28:41.647Z,64.75
2023-04-25T00:31:08.355Z,64.33
2023-04-25T00:33:34.882Z,63.74
2023-04-25T00:36:01.601Z,64.75
2023-04-25T00:38:28.017Z,64.06
2023-04-25T00:40:56.499Z,64.27
2023-04-25T00:43:22.859Z,63.58
2023-04-25T00:45:51.589Z,64.39
2023-04-25T00:48:18.433Z,64.57
2023-04-25T00:50:52.842Z,64.80
2023-04-25T00:53:19.568Z,63.74
2023-04-25T00:55:46.386Z,64.25
2023-04-25T00:58:12.803Z,63.76
2023-04-25T01:00:41.091Z,64.54
2023-04-25T01:03:07.801Z,64.23
2023-04-25T01:05:34.490Z,64.64
2023-04-25T01:08:00.989Z,65.23
2023-04-25T01:10:27.524Z,65.19
2023-04-25T01:12:54.229Z,65.48
2023-04-25T01:15:21.124Z,64.44
2023-04-25T01:17:48.035Z,64.30
2023-04-25T01:20:15.036Z,65.58
2023-04-25T01:22:41.606Z,65.87
2023-04-25T01:25:08.614Z,66.29
2023-04-25T01:27:36.585Z,66.18
2023-04-25T01:30:04.267Z,65.29
2023-04-25T01:32:39.078Z,65.25
2023-04-25T01:35:10.604Z,65.83
2023-04-25T01:37:41.184Z,66.41
2023-04-25T01:40:09.731Z,65.29
2023-04-25T01:42:38.155Z,64.33
2023-04-25T01:45:05.285Z,65.73
2023-04-25T01:47:33.072Z,65.23
2023-04-25T01:49:59.668Z,64.22
2023-04-25T01:52:26.098Z,64.45
2023-04-25T01:54:53.643Z,65.87
2023-04-25T01:57:20.794Z,66.26
2023-04-25T01:59:47.465Z,66.33
2023-04-25T02:02:13.886Z,67.29
2023-04-25T02:04:40.563Z,67.44
2023-04-25T02:07:07.127Z,68.04
2023-04-25T02:09:33.556Z,67.64
2023-04-25T02:11:59.967Z,67.24
2023-04-25T02:14:26.481Z,67.53
2023-04-25T02:16:53.499Z,67.23
2023-04-25T02:19:19.935Z,66.33
2023-04-25T02:21:46.584Z,67.28
2023-04-25T02:24:13.047Z,66.73
2023-04-25T02:26:39.455Z,66.39
2023-04-25T02:29:06.690Z,67.24
2023-04-25T02:31:33.149Z,66.88
2023-04-25T02:33:59.547Z,67.73
2023-04-25T02:36:27.244Z,66.01
2023-04-25T02:38:53.673Z,67.06
2023-04-25T02:41:21.733Z,66.12
2023-04-25T02:43:48.380Z,66.35
2023-04-25T02:46:16.453Z,66.59
2023-04-25T02:48:45.671Z,66.56
2023-04-25T02:51:12.195Z,67.82
2023-04-25T02:53:38.571Z,67.43
2023-04-25T02:56:05.331Z,67.56
2023-04-25T02:58:31.858Z,67.62
2023-04-25T03:00:58.277Z,67.68
2023-04-25T03:03:24.972Z,66.66
2023-04-25T03:05:52.509Z,67.65
2023-04-25T03:08:19.698Z,67.35
2023-04-25T03:10:46.647Z,66.28
2023-04-25T03:13:13.096Z,67.55
2023-04-25T03:15:39.877Z,66.15
2023-04-25T03:18:06.693Z,66.64
2023-04-25T03:20:33.202Z,66.46
2023-04-25T03:22:59.820Z,67.60
2023-04-25T03:25:26.463Z,66.06
2023-04-25T03:27:53.004Z,68.02
2023-04-25T03:30:19.476Z,67.29
2023-04-25T03:32:45.946Z,66.67
2023-04-25T03:35:12.438Z,67.38
2023-04-25T03:37:38.879Z,66.10
2023-04-25T03:40:05.942Z,67.83
2023-04-25T03:42:32.405Z,66.75
2023-04-25T03:44:58.795Z,67.98
2023-04-25T03:47:25.550Z,67.05
2023-04-25T03:49:52.798Z,66.83
2023-04-25T03:52:19.434Z,68.26
2023-04-25T03:54:45.924Z,68.73
2023-04-25T03:57:12.313Z,67.76
2023-04-25T03:59:38.712Z,67.45
2023-04-25T04:02:05.294Z,66.86
2023-04-25T04:04:32.058Z,67.03
2023-04-25T04:06:58.548Z,67.98
2023-04-25T04:09:25.056Z,67.42
2023-04-25T04:11:51.485Z,66.21
2023-04-25T04:14:17.883Z,66.22
2023-04-25T04:16:44.337Z,65.85
2023-04-25T04:19:10.778Z,66.69
2023-04-25T04:21:37.253Z,65.67
2023-04-25T04:24:04.297Z,65.93
2023-04-25T04:26:32.891Z,66.77
2023-04-25T04:29:00.257Z,67.38
2023-04-25T04:31:26.731Z,66.17
2023-04-25T04:33:53.490Z,66.16
2023-04-25T04:36:23.924Z,67.23
2023-04-25T04:38:50.295Z,66.38
2023-04-25T04:41:17.187Z,66.51
2023-04-25T04:43:44.270Z,68.20
2023-04-25T04:46:11.308Z,67.29
2023-04-25T04:48:38.128Z,68.38
2023-04-25T04:51:04.548Z,67.68
2023-04-25T04:53:30.926Z,67.21
2023-04-25T04:55:57.356Z,67.59
2023-04-25T04:58:24.040Z,68.57
2023-04-25T05:00:50.822Z,70.06
2023-04-25T05:03:17.469Z,69.29
2023-04-25T05:05:44.221Z,68.82
2023-04-25T05:08:10.774Z,70.04
2023-04-25T05:10:37.188Z,70.05
2023-04-25T05:13:03.812Z,69.46
2023-04-25T05:15:30.696Z,70.59
2023-04-25T05:17:57.261Z,69.95
2023-04-25T05:20:23.916Z,70.16
2023-04-25T05:22:50.367Z,70.50
2023-04-25T05:25:16.915Z,69.31
2023-04-25T05:27:43.322Z,70.49
2023-04-25T05:30:10.512Z,70.66
2023-04-25T05:32:37.564Z,71.50
2023-04-25T05:35:04.342Z,71.62
2023-04-25T05:37:32.090Z,70.76
2023-04-25T05:39:58.605Z,72.28
2023-04-25T05:42:25.053Z,71.42
2023-04-25T05:44:51.463Z,71.89
2023-04-25T05:47:17.953Z,71.25
2023-04-25T05:49:44.396Z,72.35
2023-04-25T05:52:10.829Z,72.81
2023-04-25T05:54:37.305Z,72.84
2023-04-25T05:57:03.725Z,72.07
2023-04-25T05:59:30.135Z,70.84
2023-04-25T06:01:56.567Z,70.62
2023-04-25T06:04:23.295Z,70.83
2023-04-25T06:06:49.928Z,70.38
2023-04-25T06:09:16.457Z,70.25
2023-04-25T06:11:42.993Z,71.55
2023-04-25T06:14:09.458Z,71.32
2023-04-25T06:16:36.032Z,69.72
2023-04-25T06:19:02.499Z,69.73
2023-04-25T06:21:28.945Z,68.58
2023-04-25T06:23:55.414Z,68.73
2023-04-25T06:26:21.814Z,68.14
2023-04-25T06:28:48.268Z,69.19
2023-04-25T06:31:14.840Z,67.84
2023-04-25T06:33:41.261Z,67.55
2023-04-25T06:36:07.908Z,65.90
2023-04-25T06:38:35.742Z,66.37
2023-04-25T06:41:02.171Z,64.58
2023-04-25T06:43:28.647Z,64.49
2023-04-25T06:45:55.199Z,65.93
2023-04-25T06:48:21.584Z,64.86
2023-04-25T06:50:48.051Z,66.56
2023-04-25T06:53:14.491Z,65.15
2023-04-25T06:55:41.293Z,65.28
2023-04-25T06:58:08.159Z,64.55
2023-04-25T07:00:34.747Z,64.11
2023-04-25T07:03:01.674Z,64.13
2023-04-25T07:05:28.263Z,65.10
2023-04-25T07:07:54.700Z,65.48
2023-04-25T07:10:22.293Z,64.36
2023-04-25T07:12:48.696Z,64.53
2023-04-25T07:15:15.271Z,63.58
2023-04-25T07:17:41.704Z,64.13
2023-04-25T07:20:10.083Z,62.11
2023-04-25T07:22:36.703Z,62.37
2023-04-25T07:25:03.743Z,61.02
2023-04-25T07:27:30.427Z,62.27
2023-04-25T07:29:57.371Z,60.75
2023-04-25T07:32:24.631Z,61.49
2023-04-25T07:34:52.084Z,60.76
2023-04-25T07:37:19.760Z,61.37
2023-04-25T07:39:49.375Z,60.43
2023-04-25T07:42:15.869Z,59.79
2023-04-25T07:44:43.283Z,61.22
2023-04-25T07:47:10.564Z,60.69
2023-04-25T07:49:37.825Z,59.45
2023-04-25T07:52:06.966Z,59.56
2023-04-25T07:54:33.622Z,59.30
2023-04-25T07:57:00.630Z,58.58
2023-04-25T07:59:29.323Z,57.40
2023-04-25T08:01:58.184Z,57.41
2023-04-25T08:04:25.117Z,55.81
2023-04-25T08:06:51.741Z,54.35
2023-04-25T08:09:18.214Z,53.77
2023-04-25T08:11:44.825Z,53.75
2023-04-25T08:14:12.507Z,52.86
2023-04-25T08:16:39.119Z,51.59
2023-04-25T08:19:05.947Z,50.57
2023-04-25T08:21:32.612Z,51.21
2023-04-25T08:23:59.410Z,51.36
2023-04-25T08:26:26.506Z,51.01
2023-04-25T08:28:53.393Z,52.01
2023-04-25T08:31:19.982Z,52.41
2023-04-25T08:33:46.615Z,51.72
2023-04-25T08:36:13.199Z,49.35
2023-04-25T08:38:40.976Z,48.89
2023-04-25T08:41:07.554Z,48.66
2023-04-25T08:43:36.063Z,49.47
2023-04-25T08:46:02.659Z,48.55
2023-04-25T08:48:29.837Z,47.66
2023-04-25T08:50:57.562Z,47.66
2023-04-25T08:53:31.952Z,47.13
2023-04-25T08:56:00.410Z,47.23
2023-04-25T08:58:28.302Z,47.03
2023-04-25T09:00:54.791Z,47.01
2023-04-25T09:03:21.700Z,46.66
2023-04-25T09:05:48.301Z,46.38
2023-04-25T09:08:14.760Z,46.23
2023-04-25T09:10:41.389Z,46.39
2023-04-25T09:13:16.068Z,47.04
2023-04-25T09:15:50.037Z,47.70
2023-04-25T09:18:30.243Z,46.67
2023-04-25T09:21:12.593Z,46.39
2023-04-25T09:23:43.130Z,45.66
2023-04-25T09:26:10.486Z,46.38
2023-04-25T09:28:38.767Z,46.37
2023-04-25T09:31:05.430Z,47.22
2023-04-25T09:33:33.715Z,46.23
2023-04-25T09:36:04.406Z,47.11
2023-04-25T09:38:32.656Z,46.65
2023-04-25T09:40:59.290Z,47.14
2023-04-25T09:43:26.389Z,47.18
2023-04-25T09:45:58.755Z,46.40
2023-04-25T09:48:26.928Z,45.61
2023-04-25T09:51:11.407Z,46.01
2023-04-25T09:53:42.767Z,46.09
2023-04-25T09:56:11.394Z,45.98
2023-04-25T09:58:39.704Z,45.96
2023-04-25T10:01:08.678Z,45.40
2023-04-25T10:03:41.072Z,44.97
2023-04-25T10:06:15.360Z,44.94
2023-04-25T10:08:42.890Z,45.46
2023-04-25T10:11:09.884Z,45.87
2023-04-25T10:13:37.164Z,46.31
2023-04-25T10:16:05.828Z,45.66
2023-04-25T10:18:33.375Z,46.60
2023-04-25T10:21:04.164Z,46.75
2023-04-25T10:23:32.408Z,45.88
2023-04-25T10:25:59.788Z,45.62
2023-04-25T10:28:26.424Z,44.34
2023-04-25T10:30:59.658Z,44.75
2023-04-25T10:33:41.853Z,44.94
2023-04-25T10:36:13.254Z,44.56
2023-04-25T10:38:40.776Z,44.94
2023-04-25T10:41:09.871Z,44.82
2023-04-25T10:43:47.459Z,45.31
2023-04-25T10:46:17.945Z,45.06
2023-04-25T10:48:51.441Z,44.44
2023-04-25T10:51:23.561Z,44.47
2023-04-25T10:54:09.622Z,44.75
2023-04-25T10:56:41.663Z,45.33
2023-04-25T10:59:16.753Z,45.04
2023-04-25T11:01:45.259Z,44.59
2023-04-25T11:04:32.976Z,44.57
2023-04-25T11:07:07.480Z,44.78
2023-04-25T11:09:35.707Z,44.84
2023-04-25T11:12:02.293Z,44.48
2023-04-25T11:14:29.033Z,44.77
2023-04-25T11:17:00.660Z,45.42
2023-04-25T11:19:28.330Z,45.72
2023-04-25T11:22:01.926Z,45.36
2023-04-25T11:24:29.106Z,45.16
2023-04-25T11:26:56.041Z,45.52
2023-04-25T11:29:29.868Z,45.43
2023-04-25T11:31:58.918Z,45.90
2023-04-25T11:34:27.031Z,46.83
2023-04-25T11:36:54.182Z,47.71
2023-04-25T11:39:21.603Z,47.63
2023-04-25T11:41:48.316Z,47.37
2023-04-25T11:44:19.329Z,47.56
2023-04-25T11:46:46.340Z,48.08
2023-04-25T11:49:13.559Z,47.56
2023-04-25T11:51:44.253Z,48.11
2023-04-25T11:54:11.464Z,48.87
2023-04-25T11:56:38.004Z,49.99
2023-04-25T11:59:07.744Z,48.45
2023-04-25T12:01:39.470Z,48.95
2023-04-25T12:04:17.219Z,48.56
2023-04-25T12:06:48.452Z,49.48
2023-04-25T12:09:19.576Z,48.64
2023-04-25T12:11:53.430Z,48.91
2023-04-25T12:14:31.766Z,49.94
2023-04-25T12:17:04.762Z,49.22
2023-04-25T12:19:35.988Z,50.38
2023-04-25T12:22:06.533Z,49.10
2023-04-25T12:24:38.762Z,49.15
2023-04-25T12:27:08.939Z,49.02
2023-04-25T12:29:48.700Z,49.25
2023-04-25T12:32:16.842Z,49.43
2023-04-25T12:34:43.356Z,49.69
2023-04-25T12:37:10.317Z,50.09
2023-04-25T12:39:36.789Z,49.12
2023-04-25T12:42:04.516Z,48.71
2023-04-25T12:44:31.773Z,49.46
2023-04-25T12:46:58.273Z,49.95
2023-04-25T12:49:24.795Z,50.82
2023-04-25T12:51:52.477Z,51.43
2023-04-25T12:54:18.921Z,50.49
2023-04-25T12:56:45.363Z,50.75
2023-04-25T12:59:11.850Z,51.76
2023-04-25T13:01:38.601Z,52.13
2023-04-25T13:04:05.536Z,52.02
2023-04-25T13:06:32.274Z,52.05
2023-04-25T13:08:58.719Z,53.12
2023-04-25T13:11:25.520Z,52.78
2023-04-25T13:13:52.119Z,52.87
2023-04-25T13:16:21.747Z,51.73
2023-04-25T13:18:48.583Z,52.21
2023-04-25T13:21:15.205Z,52.58
2023-04-25T13:23:43.649Z,52.17
2023-04-25T13:26:10.169Z,50.98
2023-04-25T13:28:36.556Z,51.35
2023-04-25T13:31:03.018Z,51.59
2023-04-25T13:33:29.900Z,51.97
2023-04-25T13:35:57.961Z,52.19
2023-04-25T13:38:26.451Z,52.07
2023-04-25T13:40:53.663Z,51.77
2023-04-25T13:43:23.436Z,53.18
2023-04-25T13:45:51.238Z,53.61
2023-04-25T13:48:18.699Z,51.92
2023-04-25T13:50:45.224Z,52.33
2023-04-25T13:53:11.624Z,51.50
2023-04-25T13:55:38.432Z,50.34
2023-04-25T13:58:08.557Z,50.99
2023-04-25T14:00:38.834Z,50.20
2023-04-25T14:03:08.163Z,48.74
2023-04-25T14:05:39.929Z,50.20
2023-04-25T14:08:08.190Z,49.90
2023-04-25T14:10:36.201Z,49.46
2023-04-25T14:13:04.243Z,50.39
2023-04-25T14:15:32.824Z,49.45
2023-04-25T14:18:00.777Z,49.04
2023-04-25T14:20:27.922Z,48.85
2023-04-25T14:22:55.554Z,49.42
2023-04-25T14:25:22.316Z,49.08
2023-04-25T14:27:50.888Z,50.90
2023-04-25T14:30:19.147Z,50.54
2023-04-25T14:32:46.366Z,50.20
2023-04-25T14:35:13.020Z,49.82
2023-04-25T14:37:40.199Z,49.78
2023-04-25T14:40:09.676Z,50.95
2023-04-25T14:42:36.428Z,50.63
2023-04-25T14:45:04.648Z,50.95
2023-04-25T14:47:31.240Z,51.46
2023-04-25T14:49:57.717Z,54.23
2023-04-25T14:52:24.828Z,55.28
2023-04-25T14:54:51.894Z,56.06
2023-04-25T14:57:18.369Z,57.02
2023-04-25T14:59:44.808Z,57.91
2023-04-25T15:02:11.640Z,58.08
2023-04-25T15:04:38.324Z,59.34
2023-04-25T15:07:05.020Z,59.04
2023-04-25T15:09:31.655Z,58.29
2023-04-25T15:11:58.594Z,60.98
2023-04-25T15:14:25.243Z,59.06
2023-04-25T15:16:51.751Z,59.32
2023-04-25T15:19:18.226Z,60.75
2023-04-25T15:21:44.704Z,60.35
2023-04-25T15:24:11.991Z,58.01
2023-04-25T15:26:38.470Z,60.44
2023-04-25T15:29:06.820Z,58.14
2023-04-25T15:31:33.404Z,58.29
2023-04-25T15:33:59.917Z,58.85
2023-04-25T15:36:26.629Z,56.79
2023-04-25T15:38:53.212Z,57.94
2023-04-25T15:41:19.747Z,57.12
2023-04-25T15:43:49.103Z,59.69
2023-04-25T15:46:15.982Z,57.56
2023-04-25T15:48:42.504Z,59.08
2023-04-25T15:51:09.722Z,56.58
2023-04-25T15:53:36.384Z,57.42
2023-04-25T15:56:04.505Z,57.41
2023-04-25T15:58:30.906Z,57.44
2023-04-25T16:00:57.475Z,56.93
2023-04-25T16:03:24.158Z,56.24
2023-04-25T16:05:50.819Z,54.75
2023-04-25T16:08:17.215Z,53.12
2023-04-25T16:10:43.644Z,51.97
2023-04-25T16:13:10.104Z,51.27
2023-04-25T16:15:36.888Z,50.51
2023-04-25T16:18:04.060Z,49.82
2023-04-25T16:20:30.610Z,49.25
2023-04-25T16:22:57.023Z,49.22
2023-04-25T16:25:23.674Z,49.67
2023-04-25T16:27:50.317Z,49.19
2023-04-25T16:30:17.097Z,51.11
2023-04-25T16:32:45.398Z,50.77
2023-04-25T16:35:12.405Z,50.72
2023-04-25T16:37:38.894Z,52.47
2023-04-25T16:40:08.909Z,51.61
2023-04-25T16:42:36.275Z,53.11
2023-04-25T16:45:04.914Z,51.89
2023-04-25T16:47:31.900Z,51.85
2023-04-25T16:50:01.122Z,51.73
2023-04-25T16:52:27.618Z,52.55
2023-04-25T16:54:54.040Z,51.90
2023-04-25T16:57:21.063Z,53.09
2023-04-25T16:59:47.598Z,53.09
2023-04-25T17:02:15.243Z,53.21
2023-04-25T17:04:41.982Z,53.99
2023-04-25T17:07:09.274Z,54.13
2023-04-25T17:09:36.304Z,54.12
2023-04-25T17:12:03.964Z,54.10
2023-04-25T17:14:32.249Z,53.66
2023-04-25T17:16:58.790Z,53.78
2023-04-25T17:19:26.010Z,54.12
2023-04-25T17:21:52.570Z,54.02
2023-04-25T17:24:21.118Z,54.28
2023-04-25T17:26:48.867Z,51.08
2023-04-25T17:29:15.802Z,50.92
2023-04-25T17:31:42.718Z,50.18
2023-04-25T17:34:09.774Z,51.12
2023-04-25T17:36:36.439Z,50.88
2023-04-25T17:39:06.140Z,50.16
2023-04-25T17:41:32.607Z,51.05
2023-04-25T17:43:59.081Z,49.60
2023-04-25T17:46:27.435Z,50.33
2023-04-25T17:48:54.373Z,50.21
2023-04-25T17:51:21.375Z,51.18
2023-04-25T17:53:47.998Z,51.01
2023-04-25T17:56:25.991Z,50.11
2023-04-25T17:58:53.685Z,48.53
2023-04-25T18:01:20.519Z,49.85
2023-04-25T18:03:49.213Z,48.73
2023-04-25T18:06:17.052Z,50.50
2023-04-25T18:08:44.628Z,48.58
2023-04-25T18:11:11.847Z,48.72
2023-04-25T18:13:38.692Z,48.95
2023-04-25T18:16:05.463Z,49.77
2023-04-25T18:18:34.237Z,48.76
2023-04-25T18:21:03.802Z,48.31
2023-04-25T18:23:32.325Z,48.40
2023-04-25T18:25:58.725Z,49.42
2023-04-25T18:28:25.330Z,47.92
2023-04-25T18:30:51.767Z,48.73
2023-04-25T18:33:18.264Z,49.80
2023-04-25T18:35:55.388Z,50.13
2023-04-25T18:38:35.595Z,48.32
2023-04-25T18:41:13.062Z,49.17
2023-04-25T18:43:49.592Z,50.81
2023-04-25T18:46:17.455Z,50.82
2023-04-25T18:48:43.983Z,50.27
2023-04-25T18:51:10.622Z,50.28
2023-04-25T18:53:37.426Z,50.69
2023-04-25T18:56:04.588Z,51.49
2023-04-25T18:58:31.237Z,51.21
2023-04-25T19:00:57.706Z,49.46
2023-04-25T19:03:24.405Z,51.53
2023-04-25T19:05:51.037Z,50.92
2023-04-25T19:08:17.809Z,51.64
2023-04-25T19:10:44.551Z,50.28
2023-04-25T19:13:11.078Z,52.49
2023-04-25T19:15:37.921Z,52.32
2023-04-25T19:18:04.777Z,51.48
2023-04-25T19:20:33.626Z,51.77
2023-04-25T19:23:00.076Z,51.73
2023-04-25T19:25:26.916Z,51.47
2023-04-25T19:27:53.458Z,51.33
2023-04-25T19:30:20.076Z,52.55
2023-04-25T19:32:46.583Z,52.31
2023-04-25T19:35:13.402Z,51.65
2023-04-25T19:37:45.823Z,50.57
2023-04-25T19:40:17.533Z,50.55
2023-04-25T19:42:44.463Z,50.92
2023-04-25T19:45:12.135Z,51.54
2023-04-25T19:47:38.724Z,52.18
2023-04-25T19:50:09.643Z,51.77
2023-04-25T19:52:39.909Z,50.49
2023-04-25T19:55:07.259Z,51.23
2023-04-25T19:57:38.089Z,51.26
2023-04-25T20:00:08.961Z,51.49
2023-04-25T20:02:35.680Z,51.08
2023-04-25T20:05:03.381Z,52.92
2023-04-25T20:07:29.888Z,52.99
2023-04-25T20:09:56.542Z,53.54
2023-04-25T20:12:23.028Z,53.58
2023-04-25T20:14:49.546Z,52.70
2023-04-25T20:17:16.037Z,52.19
2023-04-25T20:19:42.455Z,52.29
2023-04-25T20:22:08.915Z,54.29
2023-04-25T20:24:35.284Z,53.12
2023-04-25T20:27:02.811Z,52.58
2023-04-25T20:29:29.250Z,53.40
2023-04-25T20:31:55.868Z,53.37
2023-04-25T20:34:22.737Z,53.47
2023-04-25T20:36:49.237Z,53.59
2023-04-25T20:39:15.682Z,53.58
2023-04-25T20:41:42.600Z,54.44
2023-04-25T20:44:09.660Z,54.17
2023-04-25T20:46:36.229Z,54.40
2023-04-25T20:49:05.010Z,54.12
2023-04-25T20:51:32.731Z,53.67
2023-04-25T20:54:00.141Z,54.28
2023-04-25T20:56:26.720Z,54.78
2023-04-25T20:58:53.872Z,54.93
2023-04-25T21:01:20.652Z,54.03
2023-04-25T21:03:50.081Z,54.90
2023-04-25T21:06:16.871Z,54.47
2023-04-25T21:08:43.722Z,54.80
2023-04-25T21:11:11.051Z,55.75
2023-04-25T21:13:37.549Z,54.54
2023-04-25T21:16:04.622Z,55.36
2023-04-25T21:18:31.894Z,56.38
2023-04-25T21:20:58.854Z,55.35
2023-04-25T21:23:25.266Z,55.74
2023-04-25T21:25:53.361Z,56.01
2023-04-25T21:28:20.806Z,56.74
2023-04-25T21:30:47.435Z,55.56
2023-04-25T21:33:14.173Z,56.05
2023-04-25T21:35:40.720Z,56.77
2023-04-25T21:38:07.776Z,56.00
2023-04-25T21:40:35.076Z,56.23
2023-04-25T21:43:02.086Z,56.26
2023-04-25T21:45:29.183Z,56.34
2023-04-25T21:47:55.760Z,57.26
2023-04-25T21:50:22.330Z,56.24
2023-04-25T21:52:48.778Z,57.27
2023-04-25T21:55:16.393Z,57.33
2023-04-25T21:57:43.281Z,56.68
2023-04-25T22:00:20.980Z,56.99
2023-04-25T22:02:51.556Z,56.49
2023-04-25T22:05:21.020Z,57.19
2023-04-25T22:07:51.099Z,57.26
2023-04-25T22:10:18.361Z,57.95
2023-04-25T22:12:45.004Z,57.59
2023-04-25T22:15:14.574Z,57.48
2023-04-25T22:17:41.005Z,57.69
2023-04-25T22:20:13.489Z,57.58
2023-04-25T22:22:44.197Z,59.70
2023-04-25T22:25:12.436Z,59.49
2023-04-25T22:27:43.572Z,59.05
2023-04-25T22:30:14.354Z,59.23
2023-04-25T22:32:41.556Z,58.05
2023-04-25T22:35:09.025Z,59.46
2023-04-25T22:37:35.912Z,58.94
2023-04-25T22:40:07.106Z,60.08
2023-04-25T22:42:40.656Z,60.40
2023-04-25T22:45:08.234Z,60.52
2023-04-25T22:47:39.342Z,61.07
2023-04-25T22:50:07.774Z,60.18
2023-04-25T22:52:34.703Z,60.85
2023-04-25T22:55:04.372Z,60.39
2023-04-25T22:57:31.280Z,61.81
2023-04-25T22:59:57.803Z,61.11
2023-04-25T23:02:27.625Z,60.83
2023-04-25T23:04:54.828Z,61.25
2023-04-25T23:07:21.435Z,61.93
2023-04-25T23:09:47.868Z,62.57
2023-04-25T23:12:17.771Z,62.33
2023-04-25T23:14:44.196Z,62.48
2023-04-25T23:17:11.411Z,63.21
2023-04-25T23:19:38.311Z,61.54
2023-04-25T23:22:05.794Z,61.61
2023-04-25T23:24:37.548Z,61.23
2023-04-25T23:27:04.037Z,62.21
2023-04-25T23:29:33.168Z,63.36
2023-04-25T23:32:01.493Z,61.80
2023-04-25T23:34:31.671Z,62.48
2023-04-25T23:37:01.118Z,62.28
2023-04-25T23:39:28.272Z,63.00
2023-04-25T23:41:54.928Z,62.84
2023-04-25T23:44:22.152Z,63.87
2023-04-25T23:46:48.756Z,63.66
2023-04-25T23:49:15.487Z,62.65
2023-04-25T23:51:41.894Z,64.19
2023-04-25T23:54:08.322Z,63.13
2023-04-25T23:56:34.751Z,63.25
2023-04-25T23:59:01.198Z,64.19
